Time;durP1;ratioP1;P1;durP2;ratioP2;P2;SDS_P1;SDS_P2;PMS_P1;PMS_P2;Temp;Humidity;BMP_temperature;BMP_pressure;BME280_temperature;BME280_humidity;BME280_pressure;Samples;Min_cycle;Max_cycle;Signal;HPM_P1;HPM_P2
2021/05/25 00:02:00;;;;;;;;;;;;;;;;;;5029013;28;19925;-69
2021/05/25 00:04:26;;;;;;;;;;;;;;;;;;5029975;28;19936;-69
2021/05/25 00:06:53;;;;;;;;;;;;;;;;;;5028519;28;19925;-67
2021/05/25 00:09:19;;;;;;;;;;;;;;;;;;5030383;28;20263;-67
2021/05/25 00:11:45;;;;;;;;;;;;;;;;;;5030957;28;19935;-68
2021/05/25 00:14:17;;;;;;;;;;;;;;;;;;5026733;28;19926;-68
2021/05/25 00:16:43;;;;;;;;;;;;;;;;;;5029258;28;19932;-68
2021/05/25 00:19:10;;;;;;;;;;;;;;;;;;5029716;28;20035;-69
2021/05/25 00:21:36;;;;;;;;;;;;;;;;;;5030867;28;19987;-69
2021/05/25 00:24:03;;;;;;;;;;;;;;;;;;5030374;28;19933;-68
2021/05/25 00:26:29;;;;;;;;;;;;;;;;;;5029847;28;19925;-68
2021/05/25 00:28:55;;;;;;;;;;;;;;;;;;5034721;28;20348;-69
2021/05/25 00:31:22;;;;;;;;;;;;;;;;;;5034902;28;19925;-69
2021/05/25 00:33:48;;;;;;;;;;;;;;;;;;5035677;28;19925;-69
2021/05/25 00:36:15;;;;;;;;;;;;;;;;;;5031371;28;19929;-68
2021/05/25 00:38:41;;;;;;;;;;;;;;;;;;5033103;28;20293;-69
2021/05/25 00:41:08;;;;;;;;;;;;;;;;;;5037767;28;20363;-68
2021/05/25 00:43:34;;;;;;;;;;;;;;;;;;5036873;28;19997;-68
2021/05/25 00:46:01;;;;;;;;;;;;;;;;;;5038190;28;19975;-68
2021/05/25 00:48:27;;;;;;;;;;;;;;;;;;5029654;28;19926;-68
2021/05/25 00:50:55;;;;;;;;;;;;;;;;;;5028829;28;19926;-68
2021/05/25 00:53:21;;;;;;;;;;;;;;;;;;5030567;28;19925;-68
2021/05/25 00:55:48;;;;;;;;;;;;;;;;;;5030369;28;20312;-68
2021/05/25 00:58:14;;;;;;;;;;;;;;;;;;5030159;28;19964;-70
2021/05/25 01:00:41;;;;;;;;;;;;;;;;;;5029287;28;19933;-68
2021/05/25 01:03:07;;;;;;;;;;;;;;;;;;5029703;28;19940;-69
2021/05/25 01:05:34;;;;;;;;;;;;;;;;;;5030090;28;19933;-68
2021/05/25 01:08:00;;;;;;;;;;;;;;;;;;5030557;28;19929;-67
2021/05/25 01:10:29;;;;;;;;;;;;;;;;;;5028360;28;20296;-69
2021/05/25 01:12:57;;;;;;;;;;;;;;;;;;5023542;28;19929;-68
2021/05/25 01:15:24;;;;;;;;;;;;;;;;;;5034111;28;19929;-68
2021/05/25 01:17:52;;;;;;;;;;;;;;;;;;5034428;28;19925;-68
2021/05/25 01:20:18;;;;;;;;;;;;;;;;;;5031999;28;19932;-68
2021/05/25 01:22:45;;;;;;;;;;;;;;;;;;5032450;28;20300;-68
2021/05/25 01:25:11;;;;;;;;;;;;;;;;;;5033527;28;19932;-68
2021/05/25 01:27:38;;;;;;;;;;;;;;;;;;5033125;28;20416;-69
2021/05/25 01:30:04;;;;;;;;;;;;;;;;;;5029328;28;20016;-68
2021/05/25 01:32:31;;;;;;;;;;;;;;;;;;5032850;28;20417;-68
2021/05/25 01:34:57;;;;;;;;;;;;;;;;;;5033513;28;20010;-69
2021/05/25 01:37:24;;;;;;;;;;;;;;;;;;5033489;28;20347;-70
2021/05/25 01:39:54;;;;;;;;;;;;;;;;;;5034377;28;19932;-68
2021/05/25 01:42:20;;;;;;;;;;;;;;;;;;5032062;28;19968;-71
2021/05/25 01:44:46;;;;;;;;;;;;;;;;;;5032832;28;19948;-68
2021/05/25 01:47:13;;;;;;;;;;;;;;;;;;5032794;28;20324;-69
2021/05/25 01:49:39;;;;;;;;;;;;;;;;;;5032737;28;20003;-69
2021/05/25 01:52:06;;;;;;;;;;;;;;;;;;5033130;28;20455;-68
2021/05/25 01:54:32;;;;;;;;;;;;;;;;;;5032892;28;19979;-68
2021/05/25 01:56:59;;;;;;;;;;;;;;;;;;5031654;28;20392;-68
2021/05/25 01:59:25;;;;;;;;;;;;;;;;;;5032929;28;19935;-67
2021/05/25 02:01:52;;;;;;;;;;;;;;;;;;5032616;28;19925;-68
2021/05/25 02:04:18;;;;;;;;;;;;;;;;;;5034797;28;19925;-67
2021/05/25 02:06:45;;;;;;;;;;;;;;;;;;5033507;28;19929;-70
2021/05/25 02:09:11;;;;;;;;;;;;;;;;;;5031487;28;19925;-68
2021/05/25 02:11:38;;;;;;;;;;;;;;;;;;5032705;28;19925;-68
2021/05/25 02:14:04;;;;;;;;;;;;;;;;;;5032993;28;19925;-68
2021/05/25 02:16:31;;;;;;;;;;;;;;;;;;5030009;28;19925;-67
2021/05/25 02:18:57;;;;;;;;;;;;;;;;;;5033072;28;20415;-69
2021/05/25 02:21:24;;;;;;;;;;;;;;;;;;5031764;28;19955;-68
2021/05/25 02:23:50;;;;;;;;;;;;;;;;;;5032542;28;20304;-68
2021/05/25 02:26:17;;;;;;;;;;;;;;;;;;5030472;28;20563;-68
2021/05/25 02:28:43;;;;;;;;;;;;;;;;;;5031777;28;19928;-69
2021/05/25 02:31:10;;;;;;;;;;;;;;;;;;5032693;28;19987;-68
2021/05/25 02:33:36;;;;;;;;;;;;;;;;;;5033754;28;19926;-68
2021/05/25 02:36:03;;;;;;;;;;;;;;;;;;5031488;28;19925;-69
2021/05/25 02:38:29;;;;;;;;;;;;;;;;;;5032416;28;20348;-68
2021/05/25 02:40:55;;;;;;;;;;;;;;;;;;5031546;28;19929;-69
2021/05/25 02:43:22;;;;;;;;;;;;;;;;;;5036240;28;19925;-69
2021/05/25 02:45:48;;;;;;;;;;;;;;;;;;5032283;28;19936;-68
2021/05/25 02:48:15;;;;;;;;;;;;;;;;;;5031677;28;19949;-69
2021/05/25 02:50:41;;;;;;;;;;;;;;;;;;5030806;28;19925;-69
2021/05/25 02:53:08;;;;;;;;;;;;;;;;;;5031878;28;19931;-70
2021/05/25 02:55:34;;;;;;;;;;;;;;;;;;5032358;28;19929;-69
2021/05/25 02:58:01;;;;;;;;;;;;;;;;;;5032282;28;19924;-69
2021/05/25 03:00:27;;;;;;;;;;;;;;;;;;5032116;28;20393;-68
2021/05/25 03:02:54;;;;;;;;;;;;;;;;;;5034244;28;20027;-67
2021/05/25 03:05:22;;;;;;;;;;;;;;;;;;5031616;28;20390;-68
2021/05/25 03:07:48;;;;;;;;;;;;;;;;;;5031756;28;19961;-69
2021/05/25 03:10:15;;;;;;;;;;;;;;;;;;5030031;28;19969;-68
2021/05/25 03:12:41;;;;;;;;;;;;;;;;;;5031431;28;19932;-69
2021/05/25 03:15:08;;;;;;;;;;;;;;;;;;5031094;28;19925;-69
2021/05/25 03:17:34;;;;;;;;;;;;;;;;;;5028751;28;19931;-68
2021/05/25 03:20:01;;;;;;;;;;;;;;;;;;5030496;28;19932;-70
2021/05/25 03:22:28;;;;;;;;;;;;;;;;;;5030564;28;20664;-68
2021/05/25 03:24:54;;;;;;;;;;;;;;;;;;5031248;28;19925;-68
2021/05/25 03:27:21;;;;;;;;;;;;;;;;;;5030322;28;20378;-68
2021/05/25 03:29:47;;;;;;;;;;;;;;;;;;5031436;28;19932;-69
2021/05/25 03:32:14;;;;;;;;;;;;;;;;;;5030814;28;19979;-69
2021/05/25 03:34:40;;;;;;;;;;;;;;;;;;5061768;22;20271;-68
2021/05/25 03:37:07;;;;;;;;;;;;;;;;;;5024600;28;20429;-69
2021/05/25 03:39:33;;;;;;;;;;;;;;;;;;5023444;28;19940;-69
2021/05/25 03:42:00;;;;;;;;;;;;;;;;;;5036317;28;20385;-69
2021/05/25 03:44:26;;;;;;;;;;;;;;;;;;5030136;28;19979;-68
2021/05/25 03:46:53;;;;;;;;;;;;;;;;;;5028887;28;20328;-68
2021/05/25 03:49:19;;;;;;;;;;;;;;;;;;5021955;28;19932;-68
2021/05/25 03:51:46;;;;;;;;;;;;;;;;;;5027456;28;19925;-68
2021/05/25 03:54:16;;;;;;;;;;;;;;;;;;5019907;28;19956;-69
2021/05/25 03:56:52;;;;;;;;;;;;;;;;;;5014072;28;20016;-69
2021/05/25 03:59:18;;;;;;;;;;;;;;;;;;5017085;28;19972;-68
2021/05/25 04:01:44;;;;;;;;;;;;;;;;;;5017143;28;19937;-68
2021/05/25 04:04:11;;;;;;;;;;;;;;;;;;5031361;28;19929;-69
2021/05/25 04:06:37;;;;;;;;;;;;;;;;;;5012125;28;19979;-69
2021/05/25 04:09:05;;;;;;;;;;;;;;;;;;5019180;28;20352;-69
2021/05/25 04:11:31;;;;;;;;;;;;;;;;;;5014645;28;19971;-69
2021/05/25 04:13:58;;;;;;;;;;;;;;;;;;5018950;28;20012;-69
2021/05/25 04:16:24;;;;;;;;;;;;;;;;;;5023953;28;19930;-69
2021/05/25 04:18:51;;;;;;;;;;;;;;;;;;5012823;28;19960;-70
2021/05/25 04:21:17;;;;;;;;;;;;;;;;;;5015228;28;19926;-68
2021/05/25 04:23:44;;;;;;;;;;;;;;;;;;5020591;28;19979;-69
2021/05/25 04:26:10;;;;;;;;;;;;;;;;;;5019893;28;20270;-69
2021/05/25 04:28:37;;;;;;;;;;;;;;;;;;5024359;28;20392;-69
2021/05/25 04:31:03;;;;;;;;;;;;;;;;;;5014448;28;19925;-69
2021/05/25 04:33:30;;;;;;;;;;;;;;;;;;5018607;28;19968;-69
2021/05/25 04:35:56;;;;;;;;;;;;;;;;;;5022624;28;19925;-69
2021/05/25 04:38:23;;;;;;;;;;;;;;;;;;5018045;28;19932;-69
2021/05/25 04:40:49;;;;;;;;;;;;;;;;;;5023794;28;19926;-68
2021/05/25 04:43:16;;;;;;;;;;;;;;;;;;5016284;28;20296;-68
2021/05/25 04:45:43;;;;;;;;;;;;;;;;;;5013675;28;19925;-66
2021/05/25 04:48:10;;;;;;;;;;;;;;;;;;5013648;28;20180;-68
2021/05/25 04:50:36;;;;;;;;;;;;;;;;;;5028705;28;20024;-67
2021/05/25 04:53:03;;;;;;;;;;;;;;;;;;5024122;28;20016;-68
2021/05/25 04:55:29;;;;;;;;;;;;;;;;;;5025718;28;20428;-67
2021/05/25 04:57:56;;;;;;;;;;;;;;;;;;5031156;28;19931;-68
2021/05/25 05:00:22;;;;;;;;;;;;;;;;;;5017225;28;20020;-67
2021/05/25 05:02:49;;;;;;;;;;;;;;;;;;5022541;28;20403;-68
2021/05/25 05:05:15;;;;;;;;;;;;;;;;;;5024668;28;19932;-68
2021/05/25 05:07:42;;;;;;;;;;;;;;;;;;5020742;28;20481;-68
2021/05/25 05:10:08;;;;;;;;;;;;;;;;;;5018146;28;20029;-68
2021/05/25 05:12:35;;;;;;;;;;;;;;;;;;5023745;28;20020;-68
2021/05/25 05:15:01;;;;;;;;;;;;;;;;;;5018999;28;20013;-68
2021/05/25 05:17:29;;;;;;;;;;;;;;;;;;5019781;28;19931;-67
2021/05/25 05:19:55;;;;;;;;;;;;;;;;;;5023774;28;20028;-68
2021/05/25 05:22:22;;;;;;;;;;;;;;;;;;5016316;28;19926;-66
2021/05/25 05:24:49;;;;;;;;;;;;;;;;;;5026984;28;19976;-68
2021/05/25 05:27:15;;;;;;;;;;;;;;;;;;5017369;28;19972;-67
2021/05/25 05:29:42;;;;;;;;;;;;;;;;;;5020581;28;20069;-68
2021/05/25 05:32:08;;;;;;;;;;;;;;;;;;5024667;28;19933;-68
2021/05/25 05:34:35;;;;;;;;;;;;;;;;;;5015780;28;19977;-66
2021/05/25 05:37:02;;;;;;;;;;;;;;;;;;5025177;28;20359;-68
2021/05/25 05:39:29;;;;;;;;;;;;;;;;;;5018978;28;19932;-67
2021/05/25 05:41:56;;;;;;;;;;;;;;;;;;5013531;28;19925;-66
2021/05/25 05:44:22;;;;;;;;;;;;;;;;;;5013050;28;20064;-66
2021/05/25 05:46:49;;;;;;;;;;;;;;;;;;5019479;28;19929;-67
2021/05/25 05:49:15;;;;;;;;;;;;;;;;;;5018484;28;20342;-67
2021/05/25 05:51:42;;;;;;;;;;;;;;;;;;5015264;28;19979;-65
2021/05/25 05:54:08;;;;;;;;;;;;;;;;;;5026340;28;19933;-66
2021/05/25 05:56:35;;;;;;;;;;;;;;;;;;5020684;28;19929;-67
2021/05/25 05:59:03;;;;;;;;;;;;;;;;;;5024630;28;20075;-67
2021/05/25 06:01:29;;;;;;;;;;;;;;;;;;5020682;28;19979;-67
2021/05/25 06:03:56;;;;;;;;;;;;;;;;;;5022417;28;19948;-66
2021/05/25 06:06:22;;;;;;;;;;;;;;;;;;5026539;28;19936;-67
2021/05/25 06:08:53;;;;;;;;;;;;;;;;;;5025891;28;19933;-66
2021/05/25 06:11:19;;;;;;;;;;;;;;;;;;5027699;28;20565;-66
2021/05/25 06:13:46;;;;;;;;;;;;;;;;;;5029048;28;19979;-67
2021/05/25 06:16:13;;;;;;;;;;;;;;;;;;5031135;28;19981;-67
2021/05/25 06:18:39;;;;;;;;;;;;;;;;;;5027991;28;19925;-67
2021/05/25 06:21:06;;;;;;;;;;;;;;;;;;5029258;28;20293;-67
2021/05/25 06:23:32;;;;;;;;;;;;;;;;;;5029431;28;19925;-67
2021/05/25 06:25:59;;;;;;;;;;;;;;;;;;5030117;28;19968;-67
2021/05/25 06:28:26;;;;;;;;;;;;;;;;;;5022249;28;19925;-67
2021/05/25 06:30:52;;;;;;;;;;;;;;;;;;5027035;28;20270;-66
2021/05/25 06:33:19;;;;;;;;;;;;;;;;;;5026921;28;19929;-67
2021/05/25 06:35:45;;;;;;;;;;;;;;;;;;5021844;28;20382;-66
2021/05/25 06:38:12;;;;;;;;;;;;;;;;;;5028779;28;19929;-67
2021/05/25 06:40:38;;;;;;;;;;;;;;;;;;5033915;28;19929;-67
2021/05/25 06:43:05;;;;;;;;;;;;;;;;;;5030619;28;20317;-67
2021/05/25 06:45:31;;;;;;;;;;;;;;;;;;5026131;28;19934;-67
2021/05/25 06:47:57;;;;;;;;;;;;;;;;;;5028117;28;19953;-67
2021/05/25 06:50:24;;;;;;;;;;;;;;;;;;5022789;28;19929;-67
2021/05/25 06:52:50;;;;;;;;;;;;;;;;;;5028212;28;19944;-67
2021/05/25 06:55:17;;;;;;;;;;;;;;;;;;5019337;28;19929;-67
2021/05/25 06:57:43;;;;;;;;;;;;;;;;;;5023901;28;19931;-68
2021/05/25 07:00:14;;;;;;;;;;;;;;;;;;5018450;28;19928;-67
2021/05/25 07:02:41;;;;;;;;;;;;;;;;;;5029832;28;20330;-67
2021/05/25 07:05:07;;;;;;;;;;;;;;;;;;5024142;28;20188;-67
2021/05/25 07:07:34;;;;;;;;;;;;;;;;;;5028709;28;19964;-68
2021/05/25 07:10:00;;;;;;;;;;;;;;;;;;5029782;28;20316;-67
2021/05/25 07:12:28;;;;;;;;;;;;;;;;;;5028912;28;19925;-67
2021/05/25 07:14:54;;;;;;;;;;;;;;;;;;5029675;28;19929;-68
2021/05/25 07:17:21;;;;;;;;;;;;;;;;;;5021796;28;19933;-67
2021/05/25 07:19:51;;;;;;;;;;;;;;;;;;5030372;28;20333;-67
2021/05/25 07:22:18;;;;;;;;;;;;;;;;;;5020890;28;19929;-68
2021/05/25 07:24:46;;;;;;;;;;;;;;;;;;5023758;28;19987;-66
2021/05/25 07:27:13;;;;;;;;;;;;;;;;;;5026849;28;19934;-67
2021/05/25 07:29:39;;;;;;;;;;;;;;;;;;5029001;28;19926;-67
2021/05/25 07:32:05;;;;;;;;;;;;;;;;;;5031269;28;19929;-67
2021/05/25 07:34:32;;;;;;;;;;;;;;;;;;5031626;28;20020;-66
2021/05/25 07:36:58;;;;;;;;;;;;;;;;;;5030047;28;19994;-67
2021/05/25 07:39:25;;;;;;;;;;;;;;;;;;5026771;28;19924;-67
2021/05/25 07:41:51;;;;;;;;;;;;;;;;;;5023635;28;19972;-68
2021/05/25 07:44:18;;;;;;;;;;;;;;;;;;5027048;28;20455;-68
2021/05/25 07:46:44;;;;;;;;;;;;;;;;;;5026832;28;19975;-67
2021/05/25 07:49:11;;;;;;;;;;;;;;;;;;5026676;28;19936;-68
2021/05/25 07:51:37;;;;;;;;;;;;;;;;;;5026185;28;19935;-66
2021/05/25 07:54:04;;;;;;;;;;;;;;;;;;5022715;28;19940;-67
2021/05/25 07:56:30;;;;;;;;;;;;;;;;;;5022926;28;20316;-67
2021/05/25 07:58:57;;;;;;;;;;;;;;;;;;5025257;28;19925;-67
2021/05/25 08:01:23;;;;;;;;;;;;;;;;;;5023069;28;20519;-65
2021/05/25 08:03:50;;;;;;;;;;;;;;;;;;5028176;28;19931;-66
2021/05/25 08:06:16;;;;;;;;;;;;;;;;;;5027245;28;19929;-66
2021/05/25 08:08:43;;;;;;;;;;;;;;;;;;5033344;28;20312;-67
2021/05/25 08:11:13;;;;;;;;;;;;;;;;;;5026450;28;19932;-66
2021/05/25 08:13:39;;;;;;;;;;;;;;;;;;5031750;28;20389;-67
2021/05/25 08:16:06;;;;;;;;;;;;;;;;;;5029962;28;19933;-65
2021/05/25 08:18:54;;;;;;;;;;;;;;;;;;5029591;28;20028;-65
2021/05/25 08:21:21;;;;;;;;;;;;;;;;;;5017001;28;20306;-66
2021/05/25 08:23:47;;;;;;;;;;;;;;;;;;5025873;22;19933;-69
2021/05/25 08:26:13;;;;;;;;;;;;;;;;;;5004830;28;20301;-69
2021/05/25 08:28:40;;;;;;;;;;;;;;;;;;5006207;28;19972;-69
2021/05/25 08:31:06;;;;;;;;;;;;;;;;;;5002943;28;19925;-68
2021/05/25 08:33:33;;;;;;;;;;;;;;;;;;5002437;28;20061;-68
2021/05/25 08:36:00;;;;;;;;;;;;;;;;;;5000320;28;19926;-69
2021/05/25 08:38:27;;;;;;;;;;;;;;;;;;5052503;22;19963;-67
2021/05/25 08:40:53;;;;;;;;;;;;;;;;;;5048132;28;20106;-66
2021/05/25 08:43:20;;;;;;;;;;;;;;;;;;5042393;28;19994;-66
2021/05/25 08:45:46;;;;;;;;;;;;;;;;;;5045471;28;20046;-69
2021/05/25 08:48:13;;;;;;;;;;;;;;;;;;5032936;28;19971;-68
2021/05/25 08:50:39;;;;;;;;;;;;;;;;;;5026129;28;19933;-66
2021/05/25 08:53:06;;;;;;;;;;;;;;;;;;5025188;28;20395;-67
2021/05/25 08:55:33;;;;;;;;;;;;;;;;;;5025042;28;19978;-67
2021/05/25 08:57:59;;;;;;;;;;;;;;;;;;5025680;28;20294;-67
2021/05/25 09:00:26;;;;;;;;;;;;;;;;;;5026794;28;20021;-67
2021/05/25 09:02:52;;;;;;;;;;;;;;;;;;5026321;28;19925;-67
2021/05/25 09:05:19;;;;;;;;;;;;;;;;;;5027616;28;20318;-67
2021/05/25 09:07:47;;;;;;;;;;;;;;;;;;5025616;28;19925;-68
2021/05/25 09:10:17;;;;;;;;;;;;;;;;;;5026767;28;20015;-68
2021/05/25 09:12:44;;;;;;;;;;;;;;;;;;5025684;28;19968;-68
2021/05/25 09:15:10;;;;;;;;;;;;;;;;;;5024047;28;19925;-67
2021/05/25 09:17:37;;;;;;;;;;;;;;;;;;5026799;28;19925;-68
2021/05/25 09:20:03;;;;;;;;;;;;;;;;;;5026400;28;19992;-67
2021/05/25 09:22:30;;;;;;;;;;;;;;;;;;5034984;28;19968;-67
2021/05/25 09:24:57;;;;;;;;;;;;;;;;;;5024824;28;19926;-68
2021/05/25 09:27:23;;;;;;;;;;;;;;;;;;5026054;28;19951;-67
2021/05/25 09:29:49;;;;;;;;;;;;;;;;;;5024990;28;20408;-68
2021/05/25 09:32:17;;;;;;;;;;;;;;;;;;5023153;28;19926;-68
2021/05/25 09:34:43;;;;;;;;;;;;;;;;;;5020232;28;20405;-67
2021/05/25 09:37:10;;;;;;;;;;;;;;;;;;5025774;28;20249;-68
2021/05/25 09:39:36;;;;;;;;;;;;;;;;;;5027260;28;19928;-67
2021/05/25 09:42:03;;;;;;;;;;;;;;;;;;5025688;28;19979;-67
2021/05/25 09:44:29;;;;;;;;;;;;;;;;;;5021969;28;20059;-67
2021/05/25 09:46:58;;;;;;;;;;;;;;;;;;5026169;28;19925;-68
2021/05/25 09:49:25;;;;;;;;;;;;;;;;;;5026076;28;20456;-67
2021/05/25 09:51:51;;;;;;;;;;;;;;;;;;5022219;28;19974;-68
2021/05/25 09:54:18;;;;;;;;;;;;;;;;;;5028995;28;20024;-67
2021/05/25 09:56:44;;;;;;;;;;;;;;;;;;5027175;28;19929;-67
2021/05/25 09:59:11;;;;;;;;;;;;;;;;;;5025515;28;19929;-67
2021/05/25 10:01:37;;;;;;;;;;;;;;;;;;5027295;28;19925;-67
2021/05/25 10:04:04;;;;;;;;;;;;;;;;;;5036113;28;19926;-67
2021/05/25 10:06:30;;;;;;;;;;;;;;;;;;5032589;28;20304;-68
2021/05/25 10:08:57;;;;;;;;;;;;;;;;;;5027892;28;20312;-66
2021/05/25 10:11:23;;;;;;;;;;;;;;;;;;5026550;28;19932;-68
2021/05/25 10:13:50;;;;;;;;;;;;;;;;;;5025224;28;19979;-68
2021/05/25 10:16:18;;;;;;;;;;;;;;;;;;5025913;28;20385;-68
2021/05/25 10:19:01;;;;;;;;;;;;;;;;;;5024031;28;19971;-67
2021/05/25 10:21:28;;;;;;;;;;;;;;;;;;5026570;28;19929;-67
2021/05/25 10:23:54;;;;;;;;;;;;;;;;;;5024372;28;19925;-67
2021/05/25 10:26:21;;;;;;;;;;;;;;;;;;5025497;28;19935;-65
2021/05/25 10:28:47;;;;;;;;;;;;;;;;;;5026369;28;19933;-67
2021/05/25 10:31:14;;;;;;;;;;;;;;;;;;5026995;28;19932;-69
2021/05/25 10:33:41;;;;;;;;;;;;;;;;;;5024506;28;19926;-68
2021/05/25 10:36:08;;;;;;;;;;;;;;;;;;5026862;28;19925;-67
2021/05/25 10:38:34;;;;;;;;;;;;;;;;;;5027002;28;19932;-69
2021/05/25 10:41:01;;;;;;;;;;;;;;;;;;5026653;28;19933;-68
2021/05/25 10:43:27;;;;;;;;;;;;;;;;;;5022792;28;19925;-65
2021/05/25 10:45:55;;;;;;;;;;;;;;;;;;5028262;28;19928;-67
2021/05/25 10:48:21;;;;;;;;;;;;;;;;;;5033270;28;19929;-67
2021/05/25 10:50:48;;;;;;;;;;;;;;;;;;5022228;28;20028;-67
2021/05/25 10:53:14;;;;;;;;;;;;;;;;;;5024761;28;20019;-67
2021/05/25 10:55:42;;;;;;;;;;;;;;;;;;5026926;28;19925;-67
2021/05/25 10:58:08;;;;;;;;;;;;;;;;;;5024034;28;19929;-68
2021/05/25 11:00:35;;;;;;;;;;;;;;;;;;5024321;28;19929;-66
2021/05/25 11:03:01;;;;;;;;;;;;;;;;;;5023309;28;19998;-67
2021/05/25 11:05:28;;;;;;;;;;;;;;;;;;5026088;28;19936;-66
2021/05/25 11:07:54;;;;;;;;;;;;;;;;;;5026458;28;19929;-66
2021/05/25 11:10:21;;;;;;;;;;;;;;;;;;5023796;28;20020;-67
2021/05/25 11:12:49;;;;;;;;;;;;;;;;;;5025462;28;19975;-67
2021/05/25 11:15:16;;;;;;;;;;;;;;;;;;5027098;28;19944;-66
2021/05/25 11:17:44;;;;;;;;;;;;;;;;;;5027534;28;20004;-66
2021/05/25 11:20:12;;;;;;;;;;;;;;;;;;5027940;28;19929;-66
2021/05/25 11:22:44;;;;;;;;;;;;;;;;;;5025069;28;19940;-66
2021/05/25 11:25:10;;;;;;;;;;;;;;;;;;5024484;28;19933;-68
2021/05/25 11:27:43;;;;;;;;;;;;;;;;;;5023616;28;19983;-66
2021/05/25 11:30:12;;;;;;;;;;;;;;;;;;5025059;28;19926;-66
2021/05/25 11:32:38;;;;;;;;;;;;;;;;;;5030717;28;19929;-67
2021/05/25 11:35:05;;;;;;;;;;;;;;;;;;5024143;28;19971;-65
2021/05/25 11:37:31;;;;;;;;;;;;;;;;;;5025423;28;19971;-67
2021/05/25 11:39:58;;;;;;;;;;;;;;;;;;5026717;28;19932;-67
2021/05/25 11:42:24;;;;;;;;;;;;;;;;;;5025344;28;20015;-67
2021/05/25 11:44:51;;;;;;;;;;;;;;;;;;5027294;28;20144;-67
2021/05/25 11:47:18;;;;;;;;;;;;;;;;;;5022940;28;20007;-67
2021/05/25 11:49:44;;;;;;;;;;;;;;;;;;5025440;28;19925;-66
2021/05/25 11:52:11;;;;;;;;;;;;;;;;;;5026098;28;20278;-68
2021/05/25 11:54:37;;;;;;;;;;;;;;;;;;5024642;28;19925;-66
2021/05/25 11:57:04;;;;;;;;;;;;;;;;;;5024984;28;20309;-66
2021/05/25 11:59:30;;;;;;;;;;;;;;;;;;5024557;28;19929;-67
2021/05/25 12:01:57;;;;;;;;;;;;;;;;;;5022853;28;20035;-66
2021/05/25 12:04:24;;;;;;;;;;;;;;;;;;5023744;28;19925;-66
2021/05/25 12:06:50;;;;;;;;;;;;;;;;;;5027784;28;20335;-66
2021/05/25 12:09:17;;;;;;;;;;;;;;;;;;5034250;28;19973;-67
2021/05/25 12:11:43;;;;;;;;;;;;;;;;;;5027830;28;20397;-66
2021/05/25 12:14:10;;;;;;;;;;;;;;;;;;5023742;28;20012;-67
2021/05/25 12:16:36;;;;;;;;;;;;;;;;;;5023786;28;19930;-65
2021/05/25 12:19:03;;;;;;;;;;;;;;;;;;5023284;28;19970;-66
2021/05/25 12:21:29;;;;;;;;;;;;;;;;;;5022143;28;20464;-68
2021/05/25 12:23:56;;;;;;;;;;;;;;;;;;5023048;28;19980;-68
2021/05/25 12:26:24;;;;;;;;;;;;;;;;;;5022888;28;19972;-67
2021/05/25 12:28:51;;;;;;;;;;;;;;;;;;5024567;28;19935;-67
2021/05/25 12:31:17;;;;;;;;;;;;;;;;;;5022964;28;20287;-67
2021/05/25 12:33:44;;;;;;;;;;;;;;;;;;5026091;28;19925;-66
2021/05/25 12:36:11;;;;;;;;;;;;;;;;;;5022259;28;19929;-66
2021/05/25 12:38:37;;;;;;;;;;;;;;;;;;5023258;28;20454;-67
2021/05/25 12:41:04;;;;;;;;;;;;;;;;;;5024664;28;20019;-66
2021/05/25 12:43:31;;;;;;;;;;;;;;;;;;5022080;28;20389;-66
2021/05/25 12:45:58;;;;;;;;;;;;;;;;;;5023281;28;19982;-66
2021/05/25 12:48:24;;;;;;;;;;;;;;;;;;5022495;28;20008;-66
2021/05/25 12:50:51;;;;;;;;;;;;;;;;;;5021897;28;19932;-66
2021/05/25 12:53:17;;;;;;;;;;;;;;;;;;5026012;28;20012;-66
2021/05/25 12:55:44;;;;;;;;;;;;;;;;;;5023778;28;19964;-65
2021/05/25 12:58:11;;;;;;;;;;;;;;;;;;5024101;28;20067;-66
2021/05/25 13:00:38;;;;;;;;;;;;;;;;;;5023276;28;19925;-67
2021/05/25 13:03:04;;;;;;;;;;;;;;;;;;5025318;28;20040;-64
2021/05/25 13:05:31;;;;;;;;;;;;;;;;;;5027470;28;20395;-68
2021/05/25 13:08:03;;;;;;;;;;;;;;;;;;5024747;28;19976;-69
2021/05/25 13:10:32;;;;;;;;;;;;;;;;;;5027853;28;19944;-67
2021/05/25 13:12:59;;;;;;;;;;;;;;;;;;5027444;28;20416;-68
2021/05/25 13:15:25;;;;;;;;;;;;;;;;;;5027386;28;19925;-68
2021/05/25 13:17:53;;;;;;;;;;;;;;;;;;5030521;28;20265;-69
2021/05/25 13:23:10;;;;;;;;;;;;;;;;;;5026028;28;19925;-67
2021/05/25 13:25:37;;;;;;;;;;;;;;;;;;5027261;28;20362;-68
2021/05/25 13:28:03;;;;;;;;;;;;;;;;;;5025733;28;19933;-68
2021/05/25 13:30:29;;;;;;;;;;;;;;;;;;5025340;28;19933;-67
2021/05/25 13:32:56;;;;;;;;;;;;;;;;;;5029241;28;19932;-66
2021/05/25 13:35:23;;;;;;;;;;;;;;;;;;5028759;28;19975;-67
2021/05/25 13:37:49;;;;;;;;;;;;;;;;;;5028352;28;19929;-65
2021/05/25 13:40:16;;;;;;;;;;;;;;;;;;5028787;28;20008;-66
2021/05/25 13:42:42;;;;;;;;;;;;;;;;;;5027395;28;19933;-66
2021/05/25 13:45:08;;;;;;;;;;;;;;;;;;5029808;28;20360;-66
2021/05/25 13:47:35;;;;;;;;;;;;;;;;;;5024437;28;19929;-66
2021/05/25 13:50:22;;;;;;;;;;;;;;;;;;5026802;28;19978;-68
2021/05/25 13:52:48;;;;;;;;;;;;;;;;;;5029567;28;19948;-66
2021/05/25 13:55:14;;;;;;;;;;;;;;;;;;5026486;28;20638;-69
2021/05/25 13:57:42;;;;;;;;;;;;;;;;;;5025937;28;19956;-68
2021/05/25 14:00:12;;;;;;;;;;;;;;;;;;5029061;28;19926;-68
2021/05/25 14:02:39;;;;;;;;;;;;;;;;;;5033101;28;19956;-68
2021/05/25 14:05:05;;;;;;;;;;;;;;;;;;5027576;28;19995;-68
2021/05/25 14:07:34;;;;;;;;;;;;;;;;;;5026218;28;20031;-67
2021/05/25 14:10:00;;;;;;;;;;;;;;;;;;5026352;28;19925;-68
2021/05/25 14:12:27;;;;;;;;;;;;;;;;;;5024872;28;19929;-68
2021/05/25 14:14:54;;;;;;;;;;;;;;;;;;5026700;28;19935;-68
2021/05/25 14:17:21;;;;;;;;;;;;;;;;;;5027204;28;20015;-66
2021/05/25 14:19:48;;;;;;;;;;;;;;;;;;5025199;28;19936;-67
2021/05/25 14:22:15;;;;;;;;;;;;;;;;;;5023845;28;19960;-65
2021/05/25 14:24:42;;;;;;;;;;;;;;;;;;5027463;28;19925;-66
2021/05/25 14:27:08;;;;;;;;;;;;;;;;;;5026781;28;19928;-66
2021/05/25 14:29:35;;;;;;;;;;;;;;;;;;5025739;28;19925;-68
2021/05/25 14:32:01;;;;;;;;;;;;;;;;;;5025464;28;19952;-65
2021/05/25 14:34:28;;;;;;;;;;;;;;;;;;5026797;28;19987;-66
2021/05/25 14:39:31;;;;;;;;;;;;;;;;;;5084687;28;19977;-68
2021/05/25 14:41:57;;;;;;;;;;;;;;;;;;5086476;28;20404;-69
2021/05/25 14:44:24;;;;;;;;;;;;;;;;;;5085022;28;20307;-68
2021/05/25 14:46:51;;;;;;;;;;;;;;;;;;5085545;28;19933;-69
2021/05/25 14:49:18;;;;;;;;;;;;;;;;;;5084838;28;20381;-68
2021/05/25 14:51:44;;;;;;;;;;;;;;;;;;5084584;28;20302;-69
2021/05/25 14:54:11;;;;;;;;;;;;;;;;;;5085696;28;19955;-69
2021/05/25 14:56:39;;;;;;;;;;;;;;;;;;5086157;28;19981;-68
2021/05/25 14:59:09;;;;;;;;;;;;;;;;;;5086106;28;19974;-70
2021/05/25 15:01:39;;;;;;;;;;;;;;;;;;5085210;28;21145;-68
2021/05/25 15:04:07;;;;;;;;;;;;;;;;;;5084259;28;19935;-69
2021/05/25 15:06:34;;;;;;;;;;;;;;;;;;5087035;28;20414;-70
2021/05/25 15:09:03;;;;;;;;;;;;;;;;;;5083179;28;19931;-69
2021/05/25 15:11:30;;;;;;;;;;;;;;;;;;5082213;28;19932;-69
2021/05/25 15:13:56;;;;;;;;;;;;;;;;;;5084355;28;20395;-68
2021/05/25 15:16:23;;;;;;;;;;;;;;;;;;5084204;28;20303;-68
2021/05/25 15:18:49;;;;;;;;;;;;;;;;;;5082294;28;20031;-68
2021/05/25 15:21:16;;;;;;;;;;;;;;;;;;5083359;28;19977;-68
2021/05/25 15:23:43;;;;;;;;;;;;;;;;;;5085751;28;19925;-68
2021/05/25 15:26:10;;;;;;;;;;;;;;;;;;5085469;28;19924;-67
2021/05/25 15:28:36;;;;;;;;;;;;;;;;;;5083410;28;19932;-68
2021/05/25 15:31:03;;;;;;;;;;;;;;;;;;5083578;28;19975;-68
2021/05/25 15:33:29;;;;;;;;;;;;;;;;;;5082569;28;19929;-70
2021/05/25 15:35:56;;;;;;;;;;;;;;;;;;5085963;28;19935;-68
2021/05/25 15:38:22;;;;;;;;;;;;;;;;;;5082030;28;20020;-69
2021/05/25 15:40:49;;;;;;;;;;;;;;;;;;5079693;28;20086;-68
2021/05/25 15:43:15;;;;;;;;;;;;;;;;;;5084284;28;19976;-67
2021/05/25 15:45:42;;;;;;;;;;;;;;;;;;5083666;28;19931;-68
2021/05/25 15:48:08;;;;;;;;;;;;;;;;;;5085507;28;19930;-67
2021/05/25 15:50:35;;;;;;;;;;;;;;;;;;5080638;28;20282;-67
2021/05/25 15:53:01;;;;;;;;;;;;;;;;;;5086436;28;19998;-68
2021/05/25 15:55:28;;;;;;;;;;;;;;;;;;5084122;28;19959;-68
2021/05/25 15:57:54;;;;;;;;;;;;;;;;;;5086650;28;19924;-68
2021/05/25 16:00:22;;;;;;;;;;;;;;;;;;5082777;28;20424;-67
2021/05/25 16:02:50;;;;;;;;;;;;;;;;;;5081360;28;21337;-68
2021/05/25 16:05:17;;;;;;;;;;;;;;;;;;5085197;28;20011;-68
2021/05/25 16:07:43;;;;;;;;;;;;;;;;;;5084579;28;20022;-68
2021/05/25 16:10:10;;;;;;;;;;;;;;;;;;5085052;28;19924;-68
2021/05/25 16:12:36;;;;;;;;;;;;;;;;;;5082381;28;20406;-68
2021/05/25 16:15:03;;;;;;;;;;;;;;;;;;5083450;28;19956;-68
2021/05/25 16:17:29;;;;;;;;;;;;;;;;;;5080190;28;19924;-67
2021/05/25 16:19:56;;;;;;;;;;;;;;;;;;5084955;28;20382;-67
2021/05/25 16:22:23;;;;;;;;;;;;;;;;;;5082707;28;19928;-67
2021/05/25 16:24:50;;;;;;;;;;;;;;;;;;5081886;28;20346;-67
2021/05/25 16:27:16;;;;;;;;;;;;;;;;;;5083961;28;19943;-67
2021/05/25 16:29:43;;;;;;;;;;;;;;;;;;5082254;28;19932;-67
2021/05/25 16:32:10;;;;;;;;;;;;;;;;;;5082090;28;20435;-68
2021/05/25 16:34:37;;;;;;;;;;;;;;;;;;5084798;28;20010;-67
2021/05/25 16:37:04;;;;;;;;;;;;;;;;;;5085543;28;19931;-69
2021/05/25 16:39:30;;;;;;;;;;;;;;;;;;5085288;28;19971;-68
2021/05/25 16:41:57;;;;;;;;;;;;;;;;;;5078779;28;20073;-68
2021/05/25 16:44:23;;;;;;;;;;;;;;;;;;5085765;28;20011;-68
2021/05/25 16:46:50;;;;;;;;;;;;;;;;;;5088484;28;20011;-66
2021/05/25 16:49:17;;;;;;;;;;;;;;;;;;5089051;28;19978;-66